Time;durP1;ratioP1;P1;durP2;ratioP2;P2;SDS_P1;SDS_P2;PMS_P1;PMS_P2;Temp;Humidity;BMP_temperature;BMP_pressure;BME280_temperature;BME280_humidity;BME280_pressure;Samples;Min_cycle;Max_cycle;Signal;HPM_P1;HPM_P2
2022/12/27 00:02:23;;;;;;;9.30;1.83;;;;;;;;;;5029937;28;20057;-64
2022/12/27 00:04:53;;;;;;;4.05;1.65;;;;;;;;;;5029662;28;20068;-64
2022/12/27 00:07:23;;;;;;;9.05;1.83;;;;;;;;;;5043035;28;20057;-64
2022/12/27 00:09:53;;;;;;;6.50;1.40;;;;;;;;;;5049605;28;20068;-64
2022/12/27 00:12:23;;;;;;;3.35;1.27;;;;;;;;;;5033334;28;20060;-64
2022/12/27 00:14:53;;;;;;;4.60;1.58;;;;;;;;;;5036176;28;20437;-65
2022/12/27 00:17:23;;;;;;;6.43;1.38;;;;;;;;;;5072752;28;20425;-64
2022/12/27 00:19:53;;;;;;;8.73;1.40;;;;;;;;;;5057120;28;20056;-64
2022/12/27 00:22:23;;;;;;;7.88;1.75;;;;;;;;;;5072573;28;20059;-65
2022/12/27 00:24:53;;;;;;;5.03;1.60;;;;;;;;;;5073253;28;20047;-64
2022/12/27 00:27:23;;;;;;;6.13;1.33;;;;;;;;;;5072597;28;20647;-64
2022/12/27 00:29:52;;;;;;;7.10;1.50;;;;;;;;;;5045801;28;20060;-65
2022/12/27 00:32:22;;;;;;;3.47;1.67;;;;;;;;;;5072968;28;20060;-64
2022/12/27 00:34:52;;;;;;;6.22;1.98;;;;;;;;;;5056199;28;20059;-65
2022/12/27 00:37:23;;;;;;;3.17;1.50;;;;;;;;;;5089498;28;20126;-65
2022/12/27 00:39:53;;;;;;;6.20;1.77;;;;;;;;;;5089602;28;20052;-64
2022/12/27 00:42:26;;;;;;;6.13;1.70;;;;;;;;;;5039159;28;20048;-64
2022/12/27 00:44:56;;;;;;;8.55;2.22;;;;;;;;;;5056686;28;20723;-64
2022/12/27 00:47:27;;;;;;;8.38;2.35;;;;;;;;;;5055565;28;20423;-64
2022/12/27 00:49:57;;;;;;;5.20;1.20;;;;;;;;;;4999494;28;20056;-64
2022/12/27 00:52:27;;;;;;;8.30;1.60;;;;;;;;;;5048862;28;20057;-64
2022/12/27 00:54:56;;;;;;;15.02;1.90;;;;;;;;;;5049196;28;20060;-65
2022/12/27 00:57:26;;;;;;;6.10;1.67;;;;;;;;;;5015749;28;20064;-65
2022/12/27 00:59:56;;;;;;;6.90;1.70;;;;;;;;;;5016304;28;20402;-65
2022/12/27 01:02:29;;;;;;;5.85;1.60;;;;;;;;;;5015651;28;20053;-65
2022/12/27 01:04:59;;;;;;;6.53;2.33;;;;;;;;;;5049093;28;20125;-64
2022/12/27 01:07:29;;;;;;;4.85;1.45;;;;;;;;;;5015650;28;20053;-64
2022/12/27 01:09:59;;;;;;;5.05;1.83;;;;;;;;;;5015668;28;20064;-64
2022/12/27 01:12:29;;;;;;;5.65;1.70;;;;;;;;;;5042085;28;20517;-64
2022/12/27 01:14:59;;;;;;;7.30;1.77;;;;;;;;;;5048986;28;20068;-64
2022/12/27 01:17:29;;;;;;;4.30;1.52;;;;;;;;;;5032511;28;20052;-65
2022/12/27 01:19:59;;;;;;;6.78;1.73;;;;;;;;;;4999449;28;20056;-65
2022/12/27 01:22:29;;;;;;;8.05;1.85;;;;;;;;;;5048721;28;20053;-66
2022/12/27 01:24:59;;;;;;;4.20;1.52;;;;;;;;;;5032187;28;20064;-65
2022/12/27 01:27:29;;;;;;;5.50;1.65;;;;;;;;;;5039803;28;20080;-66
2022/12/27 01:29:59;;;;;;;6.25;1.70;;;;;;;;;;5056216;28;20052;-65
2022/12/27 01:32:32;;;;;;;7.20;1.65;;;;;;;;;;5022186;28;20059;-66
2022/12/27 01:35:03;;;;;;;3.80;1.90;;;;;;;;;;5055302;28;20048;-66
2022/12/27 01:37:34;;;;;;;5.40;1.60;;;;;;;;;;5088797;28;20051;-66
2022/12/27 01:40:05;;;;;;;3.03;1.75;;;;;;;;;;5088918;28;20051;-66
2022/12/27 01:42:54;;;;;;;4.95;1.63;;;;;;;;;;5020456;28;20041;-65
2022/12/27 01:45:27;;;;;;;6.40;1.58;;;;;;;;;;5038738;28;20057;-65
2022/12/27 01:48:22;;;;;;;4.30;1.70;;;;;;;;;;5052307;28;20167;-65
2022/12/27 01:50:57;;;;;;;7.90;1.75;;;;;;;;;;5052403;28;20057;-65
2022/12/27 01:53:31;;;;;;;3.40;1.73;;;;;;;;;;5003801;28;20516;-65
2022/12/27 01:56:08;;;;;;;5.18;1.73;;;;;;;;;;5052206;28;20053;-65
2022/12/27 01:58:57;;;;;;;4.13;1.55;;;;;;;;;;5032186;28;20042;-65
2022/12/27 02:01:33;;;;;;;4.25;1.98;;;;;;;;;;5032162;28;20061;-65
2022/12/27 02:04:08;;;;;;;6.25;1.73;;;;;;;;;;5032252;28;20061;-65
2022/12/27 02:06:39;;;;;;;6.70;2.13;;;;;;;;;;5030041;28;20053;-65
2022/12/27 02:09:18;;;;;;;6.32;1.83;;;;;;;;;;5012124;28;20058;-66
2022/12/27 02:11:57;;;;;;;6.72;1.73;;;;;;;;;;4995148;28;20054;-65
2022/12/27 02:14:48;;;;;;;7.18;1.90;;;;;;;;;;4980211;28;20070;-65
2022/12/27 02:17:28;;;;;;;;;;;;;;;;;;5012457;28;20062;-65
2022/12/27 02:20:17;;;;;;;4.88;1.70;;;;;;;;;;5019741;28;19928;-65
2022/12/27 02:26:23;;;;;;;5.75;1.75;;;;;;;;;;5051549;28;20053;-65
2022/12/27 02:29:25;;;;;;;5.18;1.50;;;;;;;;;;5051462;28;20052;-65
2022/12/27 02:32:01;;;;;;;5.63;1.95;;;;;;;;;;4992224;28;20054;-65
2022/12/27 02:35:01;;;;;;;5.32;1.80;;;;;;;;;;4992458;28;20093;-65
2022/12/27 02:37:34;;;;;;;6.10;2.47;;;;;;;;;;4933802;29;20055;-65
2022/12/27 02:55:01;;;;;;;5.70;2.30;;;;;;;;;;4932844;29;20064;-65
2022/12/27 02:58:03;;;;;;;6.93;2.50;;;;;;;;;;4934284;29;20063;-65
2022/12/27 03:04:21;;;;;;;5.60;2.17;;;;;;;;;;4925795;29;20056;-65
2022/12/27 03:07:00;;;;;;;4.55;2.17;;;;;;;;;;4933673;29;20459;-65
2022/12/27 03:16:11;;;;;;;7.07;2.22;;;;;;;;;;5085216;28;20051;-65
2022/12/27 03:18:54;;;;;;;14.60;3.00;;;;;;;;;;5041004;28;20163;-65
2022/12/27 03:27:36;;;;;;;6.78;2.75;;;;;;;;;;5090701;28;20055;-65
2022/12/27 03:33:14;;;;;;;7.18;2.40;;;;;;;;;;5090762;28;20502;-65
2022/12/27 03:39:15;;;;;;;5.88;2.40;;;;;;;;;;5073523;28;20059;-65
2022/12/27 03:44:46;;;;;;;7.25;2.45;;;;;;;;;;5020707;28;20555;-65
2022/12/27 03:47:43;;;;;;;7.38;2.55;;;;;;;;;;5069982;28;20052;-65
2022/12/27 03:50:24;;;;;;;5.78;2.08;;;;;;;;;;5020802;28;20067;-65
2022/12/27 03:53:02;;;;;;;9.73;2.35;;;;;;;;;;5007930;28;20053;-66
2022/12/27 03:55:32;;;;;;;5.85;2.47;;;;;;;;;;5010164;28;20053;-65
2022/12/27 03:58:02;;;;;;;8.95;2.35;;;;;;;;;;5010519;28;20080;-65
2022/12/27 04:00:33;;;;;;;7.97;2.75;;;;;;;;;;5010421;28;20065;-66
2022/12/27 04:03:03;;;;;;;10.10;2.70;;;;;;;;;;5010612;28;20061;-65
2022/12/27 04:05:34;;;;;;;7.78;2.47;;;;;;;;;;4976936;28;20061;-65
2022/12/27 04:36:09;;;;;;;6.00;2.53;;;;;;;;;;5071626;28;20059;-65
2022/12/27 04:38:39;;;;;;;13.65;2.72;;;;;;;;;;5071712;28;20052;-65
2022/12/27 04:55:13;;;;;;;6.28;2.25;;;;;;;;;;5071729;28;20036;-65
2022/12/27 04:57:44;;;;;;;6.05;2.40;;;;;;;;;;5052673;28;20057;-65
2022/12/27 05:03:09;;;;;;;7.13;2.13;;;;;;;;;;5071563;28;20063;-65
2022/12/27 05:05:40;;;;;;;8.98;2.53;;;;;;;;;;5071401;28;20063;-66
2022/12/27 05:13:58;;;;;;;6.55;1.98;;;;;;;;;;5035093;28;20049;-65
2022/12/27 05:16:30;;;;;;;5.50;2.40;;;;;;;;;;5015746;28;20060;-65
2022/12/27 05:19:01;;;;;;;12.00;3.40;;;;;;;;;;5053194;28;20099;-65
2022/12/27 05:21:38;;;;;;;6.88;2.53;;;;;;;;;;5036722;28;20053;-65
2022/12/27 05:26:57;;;;;;;6.43;2.90;;;;;;;;;;5052725;28;20057;-66
2022/12/27 05:29:29;;;;;;;6.97;2.67;;;;;;;;;;5036187;28;20079;-66
2022/12/27 05:31:59;;;;;;;;;;;;;;;;;;5053352;28;20064;-65
2022/12/27 05:34:29;;;;;;;12.13;2.22;;;;;;;;;;5052834;28;19928;-65
2022/12/27 05:36:59;;;;;;;9.82;3.03;;;;;;;;;;5052971;28;20053;-65
2022/12/27 05:39:30;;;;;;;6.13;2.25;;;;;;;;;;5052718;28;20052;-64
2022/12/27 05:42:00;;;;;;;7.88;2.47;;;;;;;;;;5052635;28;20501;-65
2022/12/27 05:44:30;;;;;;;8.70;2.78;;;;;;;;;;5035868;28;20053;-65
2022/12/27 05:47:00;;;;;;;9.77;2.50;;;;;;;;;;5035858;28;20064;-65
2022/12/27 05:49:30;;;;;;;5.43;2.47;;;;;;;;;;5052671;28;20052;-65
2022/12/27 05:51:59;;;;;;;5.97;2.30;;;;;;;;;;5030996;28;20083;-65
2022/12/27 05:54:29;;;;;;;9.70;2.78;;;;;;;;;;5092745;28;20067;-65
2022/12/27 05:56:59;;;;;;;5.70;2.45;;;;;;;;;;5052027;28;20068;-65
2022/12/27 05:59:29;;;;;;;6.18;2.33;;;;;;;;;;5051801;28;20057;-65
2022/12/27 06:01:59;;;;;;;6.43;2.25;;;;;;;;;;5052387;28;20068;-65
2022/12/27 06:04:29;;;;;;;7.43;2.75;;;;;;;;;;5052279;28;20053;-65
2022/12/27 06:07:00;;;;;;;6.47;2.65;;;;;;;;;;5018766;28;20057;-65
2022/12/27 06:09:30;;;;;;;5.78;2.58;;;;;;;;;;5052278;28;20060;-64
2022/12/27 06:12:00;;;;;;;5.05;2.30;;;;;;;;;;5018974;28;20504;-65
2022/12/27 06:14:30;;;;;;;7.35;2.70;;;;;;;;;;5035390;28;20057;-65
2022/12/27 06:17:00;;;;;;;10.52;2.33;;;;;;;;;;5052319;28;20052;-65
2022/12/27 06:19:30;;;;;;;10.40;2.63;;;;;;;;;;5052173;28;20036;-65
2022/12/27 06:22:00;;;;;;;6.68;2.58;;;;;;;;;;5051584;28;20563;-65
2022/12/27 06:24:30;;;;;;;4.68;1.98;;;;;;;;;;5052081;28;20037;-65
2022/12/27 06:27:00;;;;;;;4.85;2.10;;;;;;;;;;5051522;28;20053;-65
2022/12/27 06:29:30;;;;;;;9.98;2.45;;;;;;;;;;5018122;28;20049;-65
2022/12/27 06:32:00;;;;;;;8.85;2.50;;;;;;;;;;5034902;28;20049;-65
2022/12/27 06:34:29;;;;;;;6.63;2.40;;;;;;;;;;5044368;28;20053;-64
2022/12/27 06:36:59;;;;;;;7.05;2.83;;;;;;;;;;5021543;28;20084;-65
2022/12/27 06:39:29;;;;;;;6.40;2.40;;;;;;;;;;5021756;28;20060;-66
2022/12/27 06:41:59;;;;;;;6.88;3.10;;;;;;;;;;5038724;28;20053;-65
2022/12/27 06:44:29;;;;;;;8.25;2.70;;;;;;;;;;5071515;28;20440;-65
2022/12/27 06:46:59;;;;;;;7.45;2.53;;;;;;;;;;5037525;28;20043;-65
2022/12/27 06:49:29;;;;;;;11.68;3.13;;;;;;;;;;5021790;28;20072;-65
2022/12/27 06:51:59;;;;;;;8.90;3.40;;;;;;;;;;5021700;28;20057;-64
2022/12/27 06:54:29;;;;;;;8.48;3.33;;;;;;;;;;5070992;28;20111;-65
2022/12/27 06:56:59;;;;;;;7.72;3.08;;;;;;;;;;5021413;28;20048;-65
2022/12/27 06:59:28;;;;;;;9.98;3.35;;;;;;;;;;5021364;28;20064;-65
2022/12/27 07:01:58;;;;;;;7.18;3.17;;;;;;;;;;5021353;28;20572;-65
2022/12/27 07:04:28;;;;;;;6.75;3.03;;;;;;;;;;5021338;28;20625;-65
2022/12/27 07:06:58;;;;;;;10.13;3.60;;;;;;;;;;5030714;28;20053;-65
2022/12/27 07:09:28;;;;;;;7.03;3.50;;;;;;;;;;5014221;28;20409;-65
2022/12/27 07:11:58;;;;;;;7.40;2.95;;;;;;;;;;4998841;28;20065;-66
2022/12/27 07:14:27;;;;;;;9.55;2.58;;;;;;;;;;4978445;28;20084;-65
2022/12/27 07:16:57;;;;;;;6.32;2.85;;;;;;;;;;4978565;28;20064;-65
2022/12/27 07:19:28;;;;;;;5.40;2.85;;;;;;;;;;4991336;28;20534;-66
2022/12/27 07:21:58;;;;;;;4.57;2.40;;;;;;;;;;4991526;28;20069;-65
2022/12/27 07:24:31;;;;;;;6.53;2.92;;;;;;;;;;5007564;28;20073;-65
2022/12/27 07:27:01;;;;;;;11.05;3.20;;;;;;;;;;4923306;28;20047;-65
2022/12/27 07:29:31;;;;;;;6.07;3.40;;;;;;;;;;4955494;28;20065;-66
2022/12/27 07:32:02;;;;;;;9.27;3.60;;;;;;;;;;4924075;28;20066;-66
2022/12/27 07:34:31;;;;;;;6.63;3.08;;;;;;;;;;4911580;29;20052;-66
2022/12/27 07:37:02;;;;;;;11.32;3.20;;;;;;;;;;4933344;29;20063;-66
2022/12/27 07:39:32;;;;;;;8.38;2.95;;;;;;;;;;4948065;28;20060;-65
2022/12/27 07:42:02;;;;;;;10.88;2.90;;;;;;;;;;4933395;29;20572;-65
2022/12/27 07:44:38;;;;;;;6.47;2.70;;;;;;;;;;4958696;28;20062;-65
2022/12/27 07:47:08;;;;;;;7.47;2.50;;;;;;;;;;4952578;29;20059;-65
2022/12/27 07:49:38;;;;;;;6.03;2.78;;;;;;;;;;4952210;28;20047;-66
2022/12/27 07:52:08;;;;;;;7.95;2.92;;;;;;;;;;4981976;28;20414;-66
2022/12/27 07:54:38;;;;;;;7.60;2.78;;;;;;;;;;5010417;28;20053;-66
2022/12/27 07:57:08;;;;;;;8.23;2.65;;;;;;;;;;5030329;28;20080;-66
2022/12/27 07:59:38;;;;;;;5.72;2.55;;;;;;;;;;5049933;28;20060;-66
2022/12/27 08:02:09;;;;;;;6.97;2.30;;;;;;;;;;5050000;28;20064;-66
2022/12/27 08:04:39;;;;;;;6.57;2.40;;;;;;;;;;5060871;28;20053;-66
2022/12/27 08:07:15;;;;;;;8.70;3.08;;;;;;;;;;5053028;28;20055;-65
2022/12/27 08:09:47;;;;;;;7.18;2.83;;;;;;;;;;5036370;28;20052;-65
2022/12/27 08:12:17;;;;;;;9.73;3.22;;;;;;;;;;5071134;28;20063;-66
2022/12/27 08:14:47;;;;;;;8.50;2.78;;;;;;;;;;5072170;28;20040;-66
2022/12/27 08:17:25;;;;;;;10.10;3.15;;;;;;;;;;5069863;28;20044;-65
2022/12/27 08:19:57;;;;;;;9.35;2.90;;;;;;;;;;5071918;28;20055;-66
2022/12/27 08:22:27;;;;;;;7.50;3.05;;;;;;;;;;5072229;28;20051;-65
2022/12/27 08:24:57;;;;;;;5.75;2.70;;;;;;;;;;5072116;28;20060;-65
2022/12/27 08:27:27;;;;;;;7.68;3.08;;;;;;;;;;5070664;28;20392;-66
2022/12/27 08:29:58;;;;;;;7.85;3.30;;;;;;;;;;5053340;28;20114;-66
2022/12/27 08:32:27;;;;;;;7.57;3.05;;;;;;;;;;5036651;28;20694;-66
2022/12/27 08:34:57;;;;;;;6.85;3.53;;;;;;;;;;5052949;28;20053;-65
2022/12/27 08:37:47;;;;;;;10.15;3.70;;;;;;;;;;5056906;28;20595;-65
2022/12/27 08:40:18;;;;;;;9.93;3.72;;;;;;;;;;5036310;28;20064;-66
2022/12/27 08:42:49;;;;;;;10.55;3.83;;;;;;;;;;5049246;28;20056;-66
2022/12/27 08:45:19;;;;;;;8.02;3.67;;;;;;;;;;5049249;28;20072;-66
2022/12/27 08:47:50;;;;;;;7.70;3.10;;;;;;;;;;5032532;28;20068;-65
2022/12/27 08:50:21;;;;;;;9.82;3.63;;;;;;;;;;5049171;28;20060;-65
2022/12/27 08:52:51;;;;;;;11.07;3.75;;;;;;;;;;5049219;28;20061;-66
2022/12/27 08:55:21;;;;;;;10.45;3.65;;;;;;;;;;5049375;28;20052;-65
2022/12/27 08:58:02;;;;;;;9.05;4.05;;;;;;;;;;5032647;28;20053;-65
2022/12/27 09:00:37;;;;;;;8.20;4.00;;;;;;;;;;5048724;28;20408;-65
2022/12/27 09:03:08;;;;;;;8.18;3.78;;;;;;;;;;5049086;28;20097;-65
2022/12/27 09:05:39;;;;;;;7.07;3.38;;;;;;;;;;5048930;28;20528;-65
2022/12/27 09:08:10;;;;;;;8.15;3.00;;;;;;;;;;5016027;28;20049;-65
2022/12/27 09:10:41;;;;;;;11.05;3.60;;;;;;;;;;5048899;28;20041;-65
2022/12/27 09:13:11;;;;;;;8.05;3.30;;;;;;;;;;5069148;28;20496;-65
2022/12/27 09:15:42;;;;;;;6.95;2.88;;;;;;;;;;5052978;28;20155;-65
2022/12/27 09:18:13;;;;;;;7.72;2.97;;;;;;;;;;5052619;28;20071;-65
2022/12/27 09:20:43;;;;;;;7.70;3.03;;;;;;;;;;5068964;28;20464;-65
2022/12/27 09:23:13;;;;;;;6.45;2.83;;;;;;;;;;5068951;28;20045;-65
2022/12/27 09:25:44;;;;;;;7.82;3.15;;;;;;;;;;5052391;28;20068;-65
2022/12/27 09:28:15;;;;;;;6.30;2.88;;;;;;;;;;5019234;28;20056;-65
2022/12/27 09:30:44;;;;;;;11.00;2.75;;;;;;;;;;5018981;28;20850;-66
2022/12/27 09:33:15;;;;;;;10.88;3.20;;;;;;;;;;5018998;28;20654;-66
2022/12/27 09:35:45;;;;;;;6.72;2.88;;;;;;;;;;5052376;28;20061;-66
2022/12/27 09:38:15;;;;;;;12.10;2.75;;;;;;;;;;5069929;28;20056;-67
2022/12/27 09:40:58;;;;;;;4.50;2.40;;;;;;;;;;5071083;28;20068;-66
2022/12/27 09:43:57;;;;;;;8.80;2.72;;;;;;;;;;5071403;28;20435;-66
2022/12/27 09:46:59;;;;;;;6.53;2.60;;;;;;;;;;5035755;28;20061;-66
2022/12/27 09:49:37;;;;;;;6.45;2.65;;;;;;;;;;5070788;28;20048;-66
2022/12/27 09:52:41;;;;;;;9.85;4.38;;;;;;;;;;5071126;28;20055;-66
2022/12/27 09:55:45;;;;;;;9.30;4.28;;;;;;;;;;4989389;28;20070;-66
2022/12/27 09:58:33;;;;;;;10.15;4.50;;;;;;;;;;4973469;28;20536;-66
2022/12/27 10:01:17;;;;;;;8.15;3.80;;;;;;;;;;4989328;28;20046;-67
2022/12/27 10:03:49;;;;;;;51.25;8.25;;;;;;;;;;5011103;28;20050;-66
2022/12/27 10:06:28;;;;;;;8.73;3.58;;;;;;;;;;4979721;28;20744;-66
2022/12/27 10:09:24;;;;;;;11.02;4.53;;;;;;;;;;5012596;28;20064;-66
2022/12/27 10:12:22;;;;;;;8.85;3.95;;;;;;;;;;5012468;28;20058;-66
2022/12/27 10:15:14;;;;;;;15.25;5.53;;;;;;;;;;5012361;28;20072;-66
2022/12/27 10:18:23;;;;;;;15.38;5.68;;;;;;;;;;5012181;28;20054;-66
2022/12/27 10:21:19;;;;;;;13.98;5.95;;;;;;;;;;4934283;29;20052;-66
2022/12/27 10:23:59;;;;;;;16.60;6.60;;;;;;;;;;4934766;29;20055;-65
2022/12/27 10:26:29;;;;;;;19.90;6.80;;;;;;;;;;4934525;29;20051;-66
2022/12/27 10:29:21;;;;;;;14.45;6.68;;;;;;;;;;4934628;29;20063;-66
2022/12/27 10:31:52;;;;;;;15.50;6.93;;;;;;;;;;4974907;28;20050;-66
2022/12/27 10:34:23;;;;;;;14.75;6.35;;;;;;;;;;4972561;28;20051;-66
2022/12/27 10:36:53;;;;;;;14.38;6.15;;;;;;;;;;4972690;28;20396;-66
2022/12/27 10:39:28;;;;;;;11.68;4.65;;;;;;;;;;4972814;28;20066;-66
2022/12/27 10:42:23;;;;;;;8.85;3.17;;;;;;;;;;4972686;28;20053;-66
2022/12/27 10:45:25;;;;;;;10.45;3.92;;;;;;;;;;4956033;28;20051;-66
2022/12/27 10:48:17;;;;;;;9.20;3.53;;;;;;;;;;4956852;28;20062;-66
2022/12/27 10:50:50;;;;;;;5.82;2.38;;;;;;;;;;4937045;29;20059;-66
2022/12/27 10:53:55;;;;;;;3.85;1.70;;;;;;;;;;4937155;29;20066;-67
2022/12/27 10:56:27;;;;;;;10.88;3.17;;;;;;;;;;4937265;29;20070;-67
2022/12/27 10:59:17;;;;;;;7.90;2.95;;;;;;;;;;4953415;29;20059;-67
2022/12/27 11:02:09;;;;;;;3.55;1.60;;;;;;;;;;4936966;29;20051;-66
2022/12/27 11:04:56;;;;;;;3.58;1.65;;;;;;;;;;4953117;29;20048;-66
2022/12/27 11:07:34;;;;;;;3.05;1.40;;;;;;;;;;4953400;29;20066;-67
2022/12/27 11:10:08;;;;;;;5.80;1.13;;;;;;;;;;5000321;28;20049;-66
2022/12/27 11:12:53;;;;;;;2.35;1.20;;;;;;;;;;4994087;28;20076;-66
2022/12/27 11:15:23;;;;;;;;;;;;;;;;;;5030378;28;20066;-66
2022/12/27 11:17:56;;;;;;;3.95;1.27;;;;;;;;;;5030962;28;19928;-67
2022/12/27 11:20:33;;;;;;;2.38;1.42;;;;;;;;;;5030614;28;20515;-66
2022/12/27 11:23:08;;;;;;;4.47;1.48;;;;;;;;;;4997858;28;20570;-66
2022/12/27 11:25:54;;;;;;;4.32;1.20;;;;;;;;;;4998082;28;20065;-66
2022/12/27 11:28:37;;;;;;;3.10;1.25;;;;;;;;;;5030557;28;20072;-67
2022/12/27 11:31:12;;;;;;;5.28;1.30;;;;;;;;;;4981794;28;20057;-67
2022/12/27 11:33:46;;;;;;;2.78;1.30;;;;;;;;;;5031540;28;20567;-67
2022/12/27 11:36:34;;;;;;;3.05;1.33;;;;;;;;;;5111449;28;20051;-67
2022/12/27 11:39:06;;;;;;;5.05;1.02;;;;;;;;;;5111649;28;20059;-68
2022/12/27 11:41:44;;;;;;;2.65;1.05;;;;;;;;;;5111273;28;20536;-67
2022/12/27 11:44:26;;;;;;;2.85;1.00;;;;;;;;;;5077220;28;20105;-67
2022/12/27 11:46:59;;;;;;;2.13;1.35;;;;;;;;;;5036846;28;20405;-67
2022/12/27 11:49:50;;;;;;;2.10;1.00;;;;;;;;;;5072462;28;20044;-67
2022/12/27 11:52:54;;;;;;;2.53;1.50;;;;;;;;;;5070680;28;20068;-67
2022/12/27 11:55:38;;;;;;;2.00;1.15;;;;;;;;;;5072706;28;20045;-67
2022/12/27 11:58:24;;;;;;;3.15;1.30;;;;;;;;;;5037514;28;20065;-66
2022/12/27 12:01:01;;;;;;;4.80;1.80;;;;;;;;;;5072921;28;20380;-67
2022/12/27 12:03:45;;;;;;;2.97;1.23;;;;;;;;;;5072632;28;20044;-67
2022/12/27 12:06:45;;;;;;;5.50;1.02;;;;;;;;;;5072566;28;20052;-67
2022/12/27 12:09:32;;;;;;;2.65;1.17;;;;;;;;;;5036999;28;20060;-67
2022/12/27 12:12:17;;;;;;;3.88;1.10;;;;;;;;;;5070088;28;20131;-67
2022/12/27 12:14:56;;;;;;;;;;;;;;;;;;5070901;28;20416;-67
2022/12/27 12:17:38;;;;;;;2.92;1.20;;;;;;;;;;5072190;28;19927;-67
2022/12/27 12:20:17;;;;;;;3.53;1.00;;;;;;;;;;5072424;28;20044;-67
2022/12/27 12:23:18;;;;;;;2.95;1.25;;;;;;;;;;5072320;28;20052;-67
2022/12/27 12:26:19;;;;;;;3.67;1.23;;;;;;;;;;5071756;28;20060;-68
2022/12/27 12:29:17;;;;;;;3.45;1.15;;;;;;;;;;5009727;28;20062;-68
2022/12/27 12:32:13;;;;;;;1.70;1.20;;;;;;;;;;5010210;28;20050;-68
2022/12/27 12:35:08;;;;;;;2.15;1.20;;;;;;;;;;5009935;28;20049;-67
2022/12/27 12:38:04;;;;;;;5.22;1.25;;;;;;;;;;5010229;28;20053;-68
2022/12/27 12:41:04;;;;;;;2.15;1.20;;;;;;;;;;5009733;28;20054;-68
2022/12/27 12:43:49;;;;;;;1.92;1.30;;;;;;;;;;5009898;28;20049;-68
2022/12/27 12:46:31;;;;;;;2.95;1.45;;;;;;;;;;5009450;28;20057;-69
2022/12/27 12:49:27;;;;;;;7.03;1.20;;;;;;;;;;5009607;28;20057;-66
2022/12/27 12:52:16;;;;;;;5.32;1.73;;;;;;;;;;4962156;28;20066;-67
2022/12/27 12:55:16;;;;;;;5.13;1.35;;;;;;;;;;5009762;28;20057;-67
2022/12/27 12:58:10;;;;;;;4.63;1.23;;;;;;;;;;4976746;28;20546;-67
2022/12/27 13:01:03;;;;;;;2.03;1.25;;;;;;;;;;5025918;28;20069;-68
2022/12/27 13:03:45;;;;;;;2.33;1.20;;;;;;;;;;4961048;28;20053;-68
2022/12/27 13:06:32;;;;;;;5.10;1.30;;;;;;;;;;5049357;28;20495;-67
2022/12/27 13:09:29;;;;;;;3.60;1.30;;;;;;;;;;5035293;28;20037;-67
2022/12/27 13:12:37;;;;;;;2.53;1.02;;;;;;;;;;5035610;28;20523;-67
2022/12/27 13:15:19;;;;;;;2.90;1.10;;;;;;;;;;5069329;28;20048;-67
2022/12/27 13:18:18;;;;;;;3.50;1.02;;;;;;;;;;5069004;28;20059;-68
2022/12/27 13:21:19;;;;;;;3.67;1.30;;;;;;;;;;5036006;28;20048;-68
2022/12/27 13:24:01;;;;;;;2.90;1.23;;;;;;;;;;5035688;28;20056;-67
2022/12/27 13:27:12;;;;;;;2.78;1.30;;;;;;;;;;5068803;28;20044;-67
2022/12/27 13:29:50;;;;;;;4.07;0.90;;;;;;;;;;4976226;28;20061;-69
2022/12/27 13:32:23;;;;;;;3.25;1.15;;;;;;;;;;4992822;28;20054;-67
2022/12/27 13:35:14;;;;;;;3.45;1.05;;;;;;;;;;5009280;28;20068;-67
2022/12/27 13:38:06;;;;;;;3.22;0.95;;;;;;;;;;4977209;28;20089;-66
2022/12/27 13:40:39;;;;;;;1.98;1.15;;;;;;;;;;5013232;28;20054;-68
2022/12/27 13:43:20;;;;;;;7.43;1.33;;;;;;;;;;5028843;28;20058;-67
2022/12/27 13:46:27;;;;;;;3.33;1.00;;;;;;;;;;4980124;28;20057;-67
2022/12/27 13:49:29;;;;;;;3.83;1.08;;;;;;;;;;4996036;28;20092;-68
2022/12/27 13:52:19;;;;;;;2.42;1.08;;;;;;;;;;4992920;28;20498;-67
2022/12/27 13:55:11;;;;;;;3.75;1.20;;;;;;;;;;4944798;28;20065;-67
2022/12/27 13:58:09;;;;;;;2.40;1.10;;;;;;;;;;4976870;28;20058;-67
2022/12/27 14:00:55;;;;;;;3.38;1.10;;;;;;;;;;4992968;28;20058;-68
2022/12/27 14:03:44;;;;;;;2.58;1.20;;;;;;;;;;5008615;28;20058;-67
2022/12/27 14:06:47;;;;;;;2.60;1.10;;;;;;;;;;4964215;28;20053;-67
2022/12/27 14:09:33;;;;;;;3.55;1.10;;;;;;;;;;5002593;28;20060;-65
2022/12/27 14:12:35;;;;;;;3.88;1.42;;;;;;;;;;5019085;28;20576;-66
2022/12/27 14:15:11;;;;;;;1.45;0.90;;;;;;;;;;5052296;28;20064;-65
2022/12/27 14:18:01;;;;;;;1.60;0.80;;;;;;;;;;5052138;28;20061;-65
2022/12/27 14:20:46;;;;;;;6.28;1.02;;;;;;;;;;5002977;28;20459;-65
2022/12/27 14:23:43;;;;;;;1.65;0.80;;;;;;;;;;5052190;28;20049;-65
2022/12/27 14:26:35;;;;;;;2.33;1.10;;;;;;;;;;5068929;28;20429;-65
2022/12/27 14:29:39;;;;;;;2.30;0.80;;;;;;;;;;5045705;28;20570;-65
2022/12/27 14:32:27;;;;;;;2.13;1.13;;;;;;;;;;5075583;28;20059;-65
2022/12/27 14:35:24;;;;;;;4.63;1.40;;;;;;;;;;5092226;28;20404;-65
2022/12/27 14:37:55;;;;;;;1.80;0.90;;;;;;;;;;5012016;28;20077;-65
2022/12/27 14:40:31;;;;;;;1.98;0.80;;;;;;;;;;4979183;28;20046;-65
2022/12/27 14:43:39;;;;;;;1.83;0.93;;;;;;;;;;5012434;28;20062;-65
2022/12/27 14:46:46;;;;;;;1.85;1.00;;;;;;;;;;5012171;28;20552;-65
2022/12/27 14:49:31;;;;;;;1.95;0.82;;;;;;;;;;5011730;28;20058;-64
2022/12/27 14:52:10;;;;;;;3.78;1.67;;;;;;;;;;5011870;28;20074;-64
2022/12/27 14:55:12;;;;;;;7.32;3.10;;;;;;;;;;5011799;28;20057;-63
2022/12/27 14:58:11;;;;;;;7.40;2.30;;;;;;;;;;5011646;28;20077;-63
2022/12/27 15:01:04;;;;;;;34.08;18.02;;;;;;;;;;5011448;28;20072;-64
2022/12/27 15:04:01;;;;;;;17.92;9.38;;;;;;;;;;4917742;29;20515;-64
2022/12/27 15:07:16;;;;;;;2.35;1.30;;;;;;;;;;4918069;29;20504;-64
2022/12/27 15:10:17;;;;;;;3.15;0.98;;;;;;;;;;4857579;29;20065;-64
2022/12/27 15:13:01;;;;;;;3.65;0.90;;;;;;;;;;4824924;29;20077;-64
2022/12/27 15:15:49;;;;;;;;;;;;;;;;;;4852432;29;20422;-64
2022/12/27 15:18:34;;;;;;;3.85;1.08;;;;;;;;;;4889678;29;19931;-68
2022/12/27 15:21:20;;;;;;;5.32;1.00;;;;;;;;;;4904299;29;20529;-66
2022/12/27 15:24:09;;;;;;;3.00;1.17;;;;;;;;;;4858412;29;20518;-67
2022/12/27 15:27:15;;;;;;;4.95;1.20;;;;;;;;;;4858241;29;20085;-66
2022/12/27 15:30:21;;;;;;;2.45;1.23;;;;;;;;;;4858189;29;20617;-65
2022/12/27 15:32:57;;;;;;;1.58;0.80;;;;;;;;;;4875991;29;20052;-66
2022/12/27 15:35:46;;;;;;;5.45;1.10;;;;;;;;;;4876756;29;20105;-66
2022/12/27 15:38:45;;;;;;;2.40;0.90;;;;;;;;;;4876778;29;20065;-66
2022/12/27 15:41:58;;;;;;;4.18;1.23;;;;;;;;;;4850744;29;20060;-66
2022/12/27 15:44:42;;;;;;;1.83;1.10;;;;;;;;;;4830529;29;20049;-66
2022/12/27 15:47:29;;;;;;;1.20;0.70;;;;;;;;;;4907742;29;20064;-66
2022/12/27 15:50:17;;;;;;;1.85;0.77;;;;;;;;;;4909712;29;20062;-65
2022/12/27 15:53:24;;;;;;;2.75;1.15;;;;;;;;;;4952089;29;20066;-66
2022/12/27 15:56:22;;;;;;;2.28;0.73;;;;;;;;;;4904454;29;20055;-66
2022/12/27 15:59:29;;;;;;;2.13;0.80;;;;;;;;;;4952166;29;20070;-65
2022/12/27 16:02:17;;;;;;;1.02;0.82;;;;;;;;;;4951613;28;20471;-65
2022/12/27 16:05:30;;;;;;;2.75;1.13;;;;;;;;;;4971507;28;20070;-65
2022/12/27 16:08:00;;;;;;;1.98;0.90;;;;;;;;;;4955678;28;20066;-65
2022/12/27 16:10:31;;;;;;;1.85;0.70;;;;;;;;;;4954877;28;20070;-65
2022/12/27 16:13:10;;;;;;;3.75;0.88;;;;;;;;;;4907202;28;20055;-66
2022/12/27 16:15:52;;;;;;;2.33;0.93;;;;;;;;;;4971096;28;20061;-64
2022/12/27 16:18:22;;;;;;;1.30;0.90;;;;;;;;;;5027275;28;20412;-64
2022/12/27 16:20:56;;;;;;;3.28;1.25;;;;;;;;;;5092131;28;20044;-65
2022/12/27 16:23:28;;;;;;;3.15;0.88;;;;;;;;;;5089896;28;20060;-65
2022/12/27 16:26:20;;;;;;;2.10;0.80;;;;;;;;;;5057184;28;20064;-65
2022/12/27 16:28:54;;;;;;;2.97;0.80;;;;;;;;;;5089987;28;20504;-64
2022/12/27 16:31:28;;;;;;;2.72;1.00;;;;;;;;;;5091945;28;20044;-64
2022/12/27 16:34:09;;;;;;;0.70;0.50;;;;;;;;;;5092470;28;20036;-64
2022/12/27 16:36:47;;;;;;;3.45;0.93;;;;;;;;;;5090972;28;20051;-64
2022/12/27 16:39:54;;;;;;;3.00;1.08;;;;;;;;;;5090107;28;20060;-64
2022/12/27 16:42:49;;;;;;;1.05;0.85;;;;;;;;;;5092262;28;20071;-64
2022/12/27 16:45:38;;;;;;;1.80;0.85;;;;;;;;;;5091801;28;20399;-64
2022/12/27 16:48:28;;;;;;;2.28;0.90;;;;;;;;;;5056083;28;20519;-64
2022/12/27 16:51:11;;;;;;;;;;;;;;;;;;5049416;28;20053;-65
2022/12/27 16:54:18;;;;;;;2.53;1.05;;;;;;;;;;5049219;28;19921;-64
2022/12/27 16:56:48;;;;;;;2.55;1.25;;;;;;;;;;5015821;28;20060;-64
2022/12/27 16:59:55;;;;;;;3.47;1.10;;;;;;;;;;5049177;28;20060;-64
2022/12/27 17:02:35;;;;;;;1.88;1.00;;;;;;;;;;5032574;28;20056;-64
2022/12/27 17:05:14;;;;;;;2.20;0.80;;;;;;;;;;4999570;28;20049;-64
2022/12/27 17:07:49;;;;;;;3.28;1.10;;;;;;;;;;5015810;28;20535;-65
2022/12/27 17:10:32;;;;;;;1.55;0.93;;;;;;;;;;5049124;28;20065;-64
2022/12/27 17:13:15;;;;;;;3.17;1.27;;;;;;;;;;5014830;28;20056;-64
2022/12/27 17:16:14;;;;;;;1.58;1.00;;;;;;;;;;5048796;28;20060;-65
2022/12/27 17:19:07;;;;;;;2.83;0.90;;;;;;;;;;5032228;28;20057;-64
2022/12/27 17:21:41;;;;;;;3.88;1.40;;;;;;;;;;5015485;28;20408;-64
2022/12/27 17:24:19;;;;;;;2.83;1.23;;;;;;;;;;5049079;28;20484;-64
2022/12/27 17:26:57;;;;;;;2.10;0.88;;;;;;;;;;5048808;28;20141;-64
2022/12/27 17:30:15;;;;;;;1.80;0.70;;;;;;;;;;5052999;28;20067;-64
2022/12/27 17:33:09;;;;;;;1.63;0.60;;;;;;;;;;5028890;28;20437;-64
2022/12/27 17:36:06;;;;;;;1.35;0.60;;;;;;;;;;4995974;28;20054;-64
2022/12/27 17:38:46;;;;;;;1.92;0.52;;;;;;;;;;5028843;28;20505;-65